Time;durP1;ratioP1;P1;durP2;ratioP2;P2;SDS_P1;SDS_P2;PMS_P1;PMS_P2;Temp;Humidity;BMP_temperature;BMP_pressure;BME280_temperature;BME280_humidity;BME280_pressure;Samples;Min_cycle;Max_cycle;Signal;HPM_P1;HPM_P2
2023/05/17 00:00:09;;;;;;;4.10;1.87;;;6.90;99.90;;;;;;5013849;28;20461;-74
2023/05/17 00:02:36;;;;;;;2.90;1.63;;;6.80;99.90;;;;;;5013824;28;20481;-73
2023/05/17 00:05:02;;;;;;;6.00;1.93;;;6.70;99.90;;;;;;5014037;28;20448;-73
2023/05/17 00:07:27;;;;;;;2.63;1.50;;;6.60;99.90;;;;;;5013403;28;20433;-74
2023/05/17 00:09:53;;;;;;;2.70;2.10;;;6.60;99.90;;;;;;5013858;28;20780;-73
2023/05/17 00:12:19;;;;;;;8.33;3.00;;;6.60;99.90;;;;;;5013617;28;20568;-73
2023/05/17 00:14:44;;;;;;;2.40;1.40;;;6.50;99.90;;;;;;5013863;28;20194;-73
2023/05/17 00:17:10;;;;;;;2.77;1.90;;;6.50;99.90;;;;;;5013462;28;20218;-73
2023/05/17 00:19:35;;;;;;;2.77;1.73;;;6.40;99.90;;;;;;5013654;28;20274;-73
2023/05/17 00:22:01;;;;;;;6.90;1.60;;;6.40;99.90;;;;;;5013534;28;20233;-73
2023/05/17 00:24:26;;;;;;;2.77;1.80;;;6.30;99.90;;;;;;5013407;28;20665;-73
2023/05/17 00:26:52;;;;;;;2.07;1.63;;;6.30;99.90;;;;;;5013460;28;20189;-73
2023/05/17 00:29:20;;;;;;;1.93;1.57;;;6.20;99.90;;;;;;5013035;28;20201;-73
2023/05/17 00:31:46;;;;;;;2.80;1.60;;;6.20;99.90;;;;;;5013116;28;20224;-73
2023/05/17 00:34:11;;;;;;;1.83;1.67;;;6.20;99.90;;;;;;5013252;28;20526;-74
2023/05/17 00:36:39;;;;;;;1.80;1.33;;;6.20;99.90;;;;;;5013193;28;20197;-74
2023/05/17 00:39:05;;;;;;;1.67;1.57;;;6.10;99.90;;;;;;5012908;28;20204;-72
2023/05/17 00:41:31;;;;;;;3.70;1.23;;;6.10;99.90;;;;;;5013199;28;20781;-73
2023/05/17 00:43:56;;;;;;;5.60;1.43;;;6.00;99.90;;;;;;5013217;28;20209;-73
2023/05/17 00:46:22;;;;;;;2.93;1.80;;;6.00;99.90;;;;;;5012991;28;20239;-73
2023/05/17 00:48:47;;;;;;;1.83;1.33;;;6.00;99.90;;;;;;5012806;28;20193;-71
2023/05/17 00:51:15;;;;;;;3.43;1.63;;;6.00;99.90;;;;;;5012837;28;20238;-73
2023/05/17 00:53:40;;;;;;;10.03;1.50;;;6.00;99.90;;;;;;5012949;28;20686;-73
2023/05/17 00:56:06;;;;;;;3.67;1.33;;;5.90;99.90;;;;;;5013081;28;20427;-73
2023/05/17 00:58:32;;;;;;;1.53;1.40;;;5.90;99.90;;;;;;5012874;28;20204;-72
2023/05/17 02:31:26;;;;;;;2.70;1.30;;;6.00;99.90;;;;;;5613344;23;20523;-73
2023/05/17 02:33:52;;;;;;;2.30;1.10;;;5.90;99.90;;;;;;4983671;28;20424;-73
2023/05/17 02:36:18;;;;;;;6.30;1.03;;;5.90;99.90;;;;;;4991439;28;20921;-73
2023/05/17 02:38:43;;;;;;;4.97;1.63;;;5.90;99.90;;;;;;4972274;28;20395;-73
2023/05/17 02:41:09;;;;;;;4.13;1.17;;;5.90;99.90;;;;;;4979691;28;20227;-73
2023/05/17 02:43:35;;;;;;;6.37;1.73;;;5.90;99.90;;;;;;4991805;28;20592;-74
2023/05/17 02:46:00;;;;;;;2.13;1.33;;;5.80;99.90;;;;;;4992352;28;20188;-73
2023/05/17 02:48:26;;;;;;;2.40;1.60;;;5.80;99.90;;;;;;4991799;28;20195;-73
2023/05/17 02:50:54;;;;;;;2.60;1.43;;;5.70;99.90;;;;;;4992197;28;20217;-73
2023/05/17 02:53:19;;;;;;;15.53;2.40;;;5.70;99.90;;;;;;4991602;28;20185;-73
2023/05/17 02:55:45;;;;;;;1.63;1.53;;;5.60;99.90;;;;;;4991827;28;20510;-73
2023/05/17 02:58:13;;;;;;;4.07;1.37;;;5.60;99.90;;;;;;4991321;28;20267;-73
2023/05/17 03:00:39;;;;;;;4.73;1.30;;;5.50;99.90;;;;;;4991467;28;20219;-73
2023/05/17 03:03:04;;;;;;;2.87;1.73;;;5.40;99.90;;;;;;4991402;28;20498;-73
2023/05/17 03:05:30;;;;;;;2.60;1.40;;;5.40;99.90;;;;;;4991537;28;20191;-73
2023/05/17 03:07:55;;;;;;;2.83;1.57;;;5.30;99.90;;;;;;4991117;28;20182;-73
2023/05/17 03:10:21;;;;;;;3.20;1.33;;;5.30;99.90;;;;;;4991316;28;20184;-73
2023/05/17 03:12:47;;;;;;;6.43;1.63;;;5.30;99.90;;;;;;4991593;28;20674;-73
2023/05/17 03:15:12;;;;;;;2.80;2.40;;;5.20;99.90;;;;;;4983409;28;20196;-73
2023/05/17 03:17:38;;;;;;;4.33;1.50;;;5.20;99.90;;;;;;4991458;28;20216;-73
2023/05/17 03:20:06;;;;;;;2.60;1.50;;;5.10;99.90;;;;;;4991326;28;20185;-73
2023/05/17 03:22:32;;;;;;;4.73;1.50;;;5.10;99.90;;;;;;4973757;28;20292;-73
2023/05/17 03:24:57;;;;;;;3.73;1.50;;;5.10;99.90;;;;;;4973987;28;20485;-73
2023/05/17 03:27:23;;;;;;;10.40;1.80;;;5.00;99.90;;;;;;4994837;28;20184;-72
2023/05/17 03:29:51;;;;;;;1.73;1.57;;;5.00;99.90;;;;;;4997734;28;20704;-73
2023/05/17 03:32:17;;;;;;;3.90;2.20;;;5.00;99.90;;;;;;5000230;28;20258;-73
2023/05/17 03:34:42;;;;;;;4.43;1.77;;;4.90;99.90;;;;;;4995329;28;20435;-73
2023/05/17 03:37:11;;;;;;;2.73;1.40;;;4.90;99.90;;;;;;4995020;28;20194;-73
2023/05/17 03:39:36;;;;;;;2.77;1.67;;;4.80;99.90;;;;;;4995072;28;20664;-73
2023/05/17 03:42:02;;;;;;;6.67;1.90;;;4.80;99.90;;;;;;4997043;28;20456;-74
2023/05/17 03:44:30;;;;;;;7.63;1.63;;;4.80;99.90;;;;;;4996211;28;20237;-74
2023/05/17 03:46:56;;;;;;;2.60;1.60;;;4.80;99.90;;;;;;4994984;28;20681;-71
2023/05/17 03:49:21;;;;;;;9.23;1.70;;;4.80;99.90;;;;;;4994647;28;20430;-73
2023/05/17 03:51:50;;;;;;;2.27;1.67;;;4.80;99.90;;;;;;4995176;28;20212;-74
2023/05/17 03:54:15;;;;;;;3.20;1.50;;;4.80;99.90;;;;;;4994489;28;20195;-73
2023/05/17 03:56:45;;;;;;;2.57;1.47;;;4.70;99.90;;;;;;4984818;28;20996;-73
2023/05/17 03:59:14;;;;;;;1.90;1.13;;;4.70;99.90;;;;;;4994157;28;20242;-73
2023/05/17 04:01:41;;;;;;;3.77;1.90;;;4.80;99.90;;;;;;4994080;28;20486;-73
2023/05/17 04:04:06;;;;;;;5.73;2.10;;;4.80;99.90;;;;;;4992846;28;20526;-76
2023/05/17 04:06:32;;;;;;;8.10;1.73;;;4.90;99.90;;;;;;4986223;28;20431;-74
2023/05/17 04:08:58;;;;;;;3.17;2.53;;;5.00;99.90;;;;;;4993959;28;20184;-76
2023/05/17 04:11:26;;;;;;;6.43;1.70;;;5.10;99.90;;;;;;4992683;28;20245;-75
2023/05/17 04:13:52;;;;;;;2.43;1.60;;;5.20;99.90;;;;;;4985849;28;20430;-76
2023/05/17 04:16:17;;;;;;;5.80;2.30;;;5.30;99.90;;;;;;4994187;28;20435;-74
2023/05/17 04:18:44;;;;;;;2.33;2.00;;;5.30;99.90;;;;;;4993716;28;20436;-73
2023/05/17 04:21:09;;;;;;;2.63;2.00;;;5.50;99.90;;;;;;4989736;28;20212;-74
2023/05/17 04:23:35;;;;;;;7.07;2.17;;;5.50;99.90;;;;;;4985618;28;20542;-73
2023/05/17 04:26:01;;;;;;;3.57;2.10;;;5.60;99.90;;;;;;4989015;28;20678;-74
2023/05/17 04:28:27;;;;;;;6.50;2.50;;;5.70;99.90;;;;;;4990124;28;20188;-74
2023/05/17 04:30:53;;;;;;;5.83;2.67;;;5.80;99.90;;;;;;4985958;28;20462;-74
2023/05/17 04:33:18;;;;;;;7.60;3.17;;;5.90;99.90;;;;;;4993742;28;20259;-74
2023/05/17 04:35:45;;;;;;;4.60;3.57;;;5.90;99.90;;;;;;4976039;28;20205;-73
2023/05/17 04:38:13;;;;;;;6.10;3.10;;;5.90;99.90;;;;;;4993427;28;20188;-74
2023/05/17 04:40:38;;;;;;;2.73;2.40;;;6.00;99.90;;;;;;4994330;28;20466;-74
2023/05/17 04:43:04;;;;;;;4.00;2.40;;;6.10;99.90;;;;;;4992441;28;20499;-74
2023/05/17 04:45:29;;;;;;;2.37;2.17;;;6.10;99.90;;;;;;4992676;28;20718;-74
2023/05/17 04:47:55;;;;;;;3.73;2.20;;;6.20;99.90;;;;;;4992628;28;20208;-73
2023/05/17 04:50:21;;;;;;;2.13;1.47;;;6.30;99.90;;;;;;4993162;28;20621;-72
2023/05/17 04:52:46;;;;;;;2.20;2.00;;;6.30;99.90;;;;;;4992600;28;20205;-73
2023/05/17 04:55:12;;;;;;;3.37;2.07;;;6.30;99.90;;;;;;4992796;28;20264;-74
2023/05/17 04:57:38;;;;;;;9.90;2.23;;;6.40;99.90;;;;;;4992504;28;20193;-73
2023/05/17 05:00:08;;;;;;;5.70;2.70;;;6.50;99.90;;;;;;4993142;28;20191;-73
2023/05/17 05:02:34;;;;;;;3.83;2.10;;;6.60;99.90;;;;;;4992847;28;20205;-74
2023/05/17 05:05:00;;;;;;;3.33;2.07;;;6.60;99.90;;;;;;4992838;28;20435;-74
2023/05/17 05:07:25;;;;;;;4.83;2.50;;;6.70;99.90;;;;;;4992611;28;20926;-73
2023/05/17 05:09:51;;;;;;;4.60;2.40;;;6.80;99.90;;;;;;4984850;28;20188;-74
2023/05/17 05:12:17;;;;;;;6.40;3.10;;;7.00;99.90;;;;;;4992921;28;20302;-74
2023/05/17 05:14:46;;;;;;;3.00;1.63;;;7.10;99.90;;;;;;4992389;28;20204;-73
2023/05/17 05:17:11;;;;;;;5.07;1.30;;;7.30;99.90;;;;;;4991450;28;20441;-74
2023/05/17 05:19:37;;;;;;;2.70;2.27;;;7.60;99.90;;;;;;4987663;28;20441;-73
2023/05/17 05:22:06;;;;;;;2.70;2.03;;;8.10;99.90;;;;;;4987149;28;20246;-74
2023/05/17 05:24:31;;;;;;;7.20;4.03;;;8.20;99.90;;;;;;4991656;28;20243;-73
2023/05/17 05:26:56;;;;;;;14.20;2.80;;;8.40;99.90;;;;;;4992239;28;20912;-74
2023/05/17 05:29:25;;;;;;;4.30;2.00;;;8.60;99.90;;;;;;4991179;28;20222;-74
2023/05/17 05:31:50;;;;;;;5.67;2.40;;;8.80;99.90;;;;;;4990928;28;20217;-75
2023/05/17 05:34:16;;;;;;;10.00;2.27;;;9.30;99.90;;;;;;4992186;28;20883;-73
2023/05/17 05:36:45;;;;;;;2.93;2.30;;;9.90;99.90;;;;;;4992000;28;20203;-74
2023/05/17 05:39:11;;;;;;;19.63;2.10;;;10.30;99.90;;;;;;4991800;28;20245;-73
2023/05/17 05:41:36;;;;;;;3.73;1.73;;;10.70;99.90;;;;;;4994308;28;20467;-75
2023/05/17 05:44:05;;;;;;;4.93;1.60;;;11.10;99.90;;;;;;4991851;28;20471;-73
2023/05/17 05:46:31;;;;;;;2.43;1.73;;;11.50;99.90;;;;;;4992246;28;20198;-74
2023/05/17 05:48:56;;;;;;;3.23;2.10;;;11.70;99.90;;;;;;4991551;28;20431;-74
2023/05/17 05:51:25;;;;;;;4.90;2.33;;;12.10;99.90;;;;;;4992355;28;20222;-75
2023/05/17 05:53:50;;;;;;;10.03;2.60;;;12.20;99.90;;;;;;4991800;28;20241;-74
2023/05/17 05:56:16;;;;;;;5.40;1.77;;;12.00;99.90;;;;;;4992262;28;20466;-74
2023/05/17 05:58:44;;;;;;;5.37;2.10;;;11.90;99.90;;;;;;4991634;28;20285;-74
2023/05/17 06:01:10;;;;;;;4.33;1.83;;;11.80;99.90;;;;;;4986760;28;20283;-74
2023/05/17 06:03:36;;;;;;;11.43;1.60;;;11.60;99.90;;;;;;4988546;28;20561;-74
2023/05/17 06:06:05;;;;;;;8.97;3.10;;;11.40;99.90;;;;;;4989332;28;20644;-74
2023/05/17 06:08:30;;;;;;;9.47;2.20;;;11.40;99.90;;;;;;4986942;28;20234;-74
2023/05/17 06:10:56;;;;;;;6.23;1.97;;;11.30;99.90;;;;;;4991872;28;21081;-74
2023/05/17 06:13:24;;;;;;;1.93;1.63;;;11.40;99.90;;;;;;4992137;28;20198;-74
2023/05/17 06:15:50;;;;;;;5.07;2.10;;;11.50;99.90;;;;;;4991791;28;20222;-74
2023/05/17 06:18:15;;;;;;;2.70;1.77;;;11.80;99.90;;;;;;4991768;28;20434;-74
2023/05/17 06:20:44;;;;;;;12.67;2.20;;;12.20;99.90;;;;;;4991819;28;20717;-74
2023/05/17 06:23:09;;;;;;;3.27;2.10;;;12.70;99.90;;;;;;4991716;28;20207;-74
2023/05/17 06:25:35;;;;;;;3.37;1.60;;;13.20;99.90;;;;;;4992431;28;20548;-75
2023/05/17 06:28:04;;;;;;;6.93;1.90;;;13.50;99.90;;;;;;4998692;28;20187;-75
2023/05/17 06:30:30;;;;;;;5.70;2.77;;;13.80;99.90;;;;;;4991602;28;20190;-75
2023/05/17 06:32:55;;;;;;;4.70;1.80;;;14.00;99.90;;;;;;4991294;28;20434;-74
2023/05/17 06:35:24;;;;;;;5.27;2.03;;;14.20;99.90;;;;;;4974619;28;20195;-74
2023/05/17 06:37:49;;;;;;;2.83;1.77;;;14.30;99.90;;;;;;4993612;28;20608;-74
2023/05/17 06:40:15;;;;;;;8.60;1.77;;;14.20;99.90;;;;;;4997608;28;20438;-74
2023/05/17 06:42:43;;;;;;;6.37;1.67;;;14.10;99.90;;;;;;4990167;28;20209;-74
2023/05/17 06:45:09;;;;;;;7.47;1.63;;;14.20;99.90;;;;;;4985342;28;20284;-75
2023/05/17 06:47:35;;;;;;;9.90;3.33;;;14.20;99.90;;;;;;4982773;28;20434;-75
2023/05/17 06:50:04;;;;;;;6.43;2.20;;;14.40;99.90;;;;;;4984052;28;20973;-74
2023/05/17 06:52:29;;;;;;;2.50;1.97;;;14.40;99.90;;;;;;4991599;28;20587;-74
2023/05/17 06:54:55;;;;;;;5.53;1.83;;;14.60;99.90;;;;;;4991374;28;20431;-75
2023/05/17 06:57:20;;;;;;;4.77;2.00;;;14.80;99.90;;;;;;4997751;28;20249;-75
2023/05/17 06:59:46;;;;;;;3.77;2.13;;;15.00;99.90;;;;;;4992720;28;20237;-75
2023/05/17 07:02:11;;;;;;;5.50;2.17;;;15.20;99.90;;;;;;4994855;28;20569;-75
2023/05/17 07:04:37;;;;;;;2.23;2.03;;;15.20;99.90;;;;;;4995183;28;20615;-74
2023/05/17 07:07:02;;;;;;;6.30;3.43;;;15.40;99.90;;;;;;4995115;28;20640;-71
2023/05/17 07:09:28;;;;;;;7.10;2.93;;;15.50;99.90;;;;;;4995233;28;20210;-75
2023/05/17 07:11:53;;;;;;;6.37;2.53;;;15.80;99.90;;;;;;4994837;28;20214;-75
2023/05/17 07:14:19;;;;;;;3.60;2.10;;;16.20;99.90;;;;;;4995174;28;20251;-75
2023/05/17 07:16:44;;;;;;;6.80;2.80;;;16.40;99.90;;;;;;4994933;28;20558;-76
2023/05/17 07:19:10;;;;;;;3.73;2.17;;;16.60;99.90;;;;;;4994769;28;20207;-75
2023/05/17 07:21:35;;;;;;;3.83;2.13;;;17.20;99.90;;;;;;4994721;28;20222;-75
2023/05/17 07:24:01;;;;;;;6.33;3.00;;;17.30;99.90;;;;;;4994798;28;20286;-75
2023/05/17 07:26:26;;;;;;;4.43;2.60;;;17.50;99.90;;;;;;4995141;28;20209;-75
2023/05/17 07:28:52;;;;;;;3.57;2.30;;;17.60;99.90;;;;;;4994265;28;20195;-75
2023/05/17 07:31:17;;;;;;;6.77;2.70;;;17.60;99.90;;;;;;4989075;28;20211;-76
2023/05/17 07:33:43;;;;;;;7.73;2.70;;;17.50;99.90;;;;;;4992497;28;20199;-75
2023/05/17 07:36:09;;;;;;;3.50;2.57;;;17.50;99.90;;;;;;4994803;28;20286;-76
2023/05/17 07:38:35;;;;;;;5.30;2.90;;;17.30;99.90;;;;;;4994553;28;20199;-75
2023/05/17 07:41:01;;;;;;;2.33;2.13;;;16.90;99.90;;;;;;4986607;28;20207;-75
2023/05/17 07:43:26;;;;;;;5.17;2.37;;;16.50;99.90;;;;;;4994585;28;20210;-74
2023/05/17 07:45:52;;;;;;;3.00;2.70;;;16.00;99.90;;;;;;4994370;28;20885;-75
2023/05/17 07:48:17;;;;;;;3.77;2.60;;;15.70;99.90;;;;;;4994477;28;20199;-75
2023/05/17 07:50:43;;;;;;;8.20;3.57;;;15.50;99.90;;;;;;4994371;28;20297;-74
2023/05/17 07:53:09;;;;;;;13.60;3.47;;;15.40;99.90;;;;;;4994388;28;20202;-75
2023/05/17 07:55:34;;;;;;;5.63;3.13;;;15.20;99.90;;;;;;4994667;28;20191;-74
2023/05/17 07:58:00;;;;;;;4.77;2.90;;;15.30;99.90;;;;;;4985818;28;20286;-74
2023/05/17 08:00:26;;;;;;;10.90;4.07;;;15.10;99.90;;;;;;4994567;28;20222;-74
2023/05/17 08:02:51;;;;;;;6.60;2.90;;;14.60;99.90;;;;;;4994055;28;20699;-75
2023/05/17 08:05:17;;;;;;;10.50;3.20;;;14.60;99.90;;;;;;5002564;28;20245;-74
2023/05/17 08:07:42;;;;;;;4.67;3.20;;;14.40;99.90;;;;;;4994139;28;20656;-74
2023/05/17 08:10:08;;;;;;;6.13;3.73;;;14.30;99.90;;;;;;4994342;28;20205;-74
2023/05/17 08:12:34;;;;;;;3.90;2.60;;;14.20;99.90;;;;;;4993874;28;20577;-74
2023/05/17 08:14:59;;;;;;;11.20;3.00;;;14.30;99.90;;;;;;4994090;28;20472;-73
2023/05/17 08:17:25;;;;;;;9.03;4.93;;;14.50;99.90;;;;;;4994080;28;20196;-75
2023/05/17 08:19:50;;;;;;;10.87;3.50;;;14.50;99.90;;;;;;4994003;28;20190;-75
2023/05/17 08:22:16;;;;;;;4.10;3.13;;;14.50;99.90;;;;;;4994050;28;20294;-75
2023/05/17 08:24:43;;;;;;;7.77;3.43;;;14.50;99.90;;;;;;4994408;28;20223;-74
2023/05/17 08:27:09;;;;;;;4.63;2.43;;;14.70;99.90;;;;;;5001017;28;20183;-74
2023/05/17 08:29:36;;;;;;;3.93;2.97;;;14.70;99.90;;;;;;4993952;28;20473;-74
2023/05/17 08:32:01;;;;;;;12.53;2.53;;;14.70;99.90;;;;;;5001672;28;20640;-75
2023/05/17 08:34:30;;;;;;;6.70;3.00;;;15.10;99.90;;;;;;5001987;28;20477;-75
2023/05/17 08:36:56;;;;;;;4.13;3.20;;;15.50;99.90;;;;;;5004048;28;20195;-74
2023/05/17 08:39:21;;;;;;;5.50;3.33;;;15.50;99.90;;;;;;4981657;28;20444;-75
2023/05/17 08:41:50;;;;;;;7.13;3.23;;;15.70;99.90;;;;;;4993619;28;20630;-74
2023/05/17 08:44:16;;;;;;;7.00;3.30;;;16.10;99.90;;;;;;4985655;28;20210;-74
2023/05/17 08:46:52;;;;;;;5.07;2.70;;;16.40;99.90;;;;;;4993789;28;20434;-75
2023/05/17 08:49:20;;;;;;;8.43;3.57;;;16.80;99.90;;;;;;4993528;28;20183;-74
2023/05/17 08:51:48;;;;;;;10.03;2.57;;;17.40;99.90;;;;;;4993454;28;20485;-74
2023/05/17 08:54:14;;;;;;;9.83;3.43;;;17.90;99.90;;;;;;4988741;28;21022;-74
2023/05/17 08:56:41;;;;;;;2.93;2.57;;;18.30;99.90;;;;;;4990031;28;20430;-74
2023/05/17 08:59:09;;;;;;;5.57;3.33;;;18.90;99.90;;;;;;4993267;28;20224;-74
2023/05/17 09:01:36;;;;;;;6.50;2.90;;;19.00;99.90;;;;;;4993422;28;20917;-75
2023/05/17 09:04:03;;;;;;;5.40;3.23;;;18.70;99.90;;;;;;4992885;28;20517;-74
2023/05/17 09:06:30;;;;;;;5.53;3.20;;;18.60;99.90;;;;;;4993285;28;20435;-75
2023/05/17 09:09:00;;;;;;;5.97;3.20;;;18.70;99.90;;;;;;4984655;28;20435;-74
2023/05/17 09:11:27;;;;;;;6.97;3.20;;;18.50;99.90;;;;;;4999388;28;20523;-75
2023/05/17 09:13:57;;;;;;;6.57;2.93;;;18.30;99.90;;;;;;4994459;28;20434;-75
2023/05/17 09:16:22;;;;;;;5.30;2.97;;;17.70;99.90;;;;;;4998966;28;20483;-75
2023/05/17 09:18:55;;;;;;;4.43;2.63;;;17.60;99.90;;;;;;5003128;28;20430;-74
2023/05/17 09:21:22;;;;;;;4.37;2.50;;;17.50;99.90;;;;;;4992872;28;20253;-74
2023/05/17 09:23:49;;;;;;;3.53;2.70;;;16.90;99.90;;;;;;4991850;28;20470;-74
2023/05/17 09:26:16;;;;;;;7.73;3.20;;;16.90;99.90;;;;;;4992844;28;20427;-74
2023/05/17 09:28:42;;;;;;;4.37;2.73;;;17.50;99.90;;;;;;4992447;28;20430;-74
2023/05/17 09:31:09;;;;;;;6.07;2.77;;;18.20;99.90;;;;;;5000458;28;20446;-75
2023/05/17 09:33:50;;;;;;;5.73;3.10;;;18.50;99.90;;;;;;4985823;28;20192;-75
2023/05/17 09:36:20;;;;;;;4.13;2.47;;;18.60;99.90;;;;;;4986088;28;20437;-75
2023/05/17 09:38:58;;;;;;;5.73;3.07;;;18.70;99.90;;;;;;4992447;28;20462;-75
2023/05/17 09:41:28;;;;;;;3.33;2.70;;;18.50;99.90;;;;;;4992769;28;20461;-75
2023/05/17 09:43:58;;;;;;;7.60;3.13;;;18.00;99.90;;;;;;4990774;28;20478;-74
2023/05/17 09:46:24;;;;;;;4.63;2.97;;;18.50;99.90;;;;;;4986986;28;20522;-75
2023/05/17 09:48:54;;;;;;;4.30;2.87;;;18.90;99.90;;;;;;4992321;28;20465;-75
2023/05/17 09:51:33;;;;;;;7.50;2.63;;;19.50;99.90;;;;;;4991174;28;20270;-74
2023/05/17 09:53:59;;;;;;;3.20;2.73;;;19.50;99.90;;;;;;4992057;28;20426;-74
2023/05/17 09:56:31;;;;;;;8.70;2.50;;;19.00;99.90;;;;;;4992425;28;20508;-74
2023/05/17 09:58:59;;;;;;;4.03;2.80;;;18.40;99.90;;;;;;4992325;28;20217;-74
2023/05/17 10:01:26;;;;;;;6.83;3.60;;;18.00;99.90;;;;;;4992644;28;20454;-74
2023/05/17 10:03:53;;;;;;;7.87;3.13;;;17.20;99.90;;;;;;4983866;28;20478;-75
2023/05/17 10:06:21;;;;;;;8.10;3.17;;;16.70;99.90;;;;;;5000227;28;20534;-75
2023/05/17 10:08:52;;;;;;;8.87;3.40;;;16.30;99.90;;;;;;4991733;28;20426;-75
2023/05/17 10:11:25;;;;;;;7.20;4.33;;;15.90;99.90;;;;;;5000161;28;20461;-74
2023/05/17 10:14:17;;;;;;;3.57;2.90;;;15.60;99.90;;;;;;4992192;28;20950;-74
2023/05/17 10:16:44;;;;;;;6.90;3.50;;;15.50;99.90;;;;;;4992147;28;20426;-74
2023/05/17 10:19:13;;;;;;;5.20;3.20;;;15.30;99.90;;;;;;4991452;28;20426;-75
2023/05/17 10:21:41;;;;;;;6.43;3.37;;;15.20;99.90;;;;;;4991979;28;20473;-75
2023/05/17 10:24:08;;;;;;;4.57;2.43;;;15.30;99.90;;;;;;4991288;28;20470;-75
2023/05/17 10:26:35;;;;;;;7.97;3.87;;;15.30;99.90;;;;;;4991954;28;20843;-74
2023/05/17 10:29:02;;;;;;;2.73;2.37;;;15.40;99.90;;;;;;4990965;28;20430;-74
2023/05/17 10:31:29;;;;;;;6.27;2.83;;;15.30;99.90;;;;;;4991768;28;20891;-74
2023/05/17 10:33:55;;;;;;;5.53;3.23;;;15.20;99.90;;;;;;4991430;28;20512;-74
2023/05/17 10:36:23;;;;;;;4.17;2.67;;;15.20;99.90;;;;;;4991630;28;20470;-74
2023/05/17 10:38:49;;;;;;;5.53;3.10;;;15.30;99.90;;;;;;4991230;28;20438;-74
2023/05/17 10:41:17;;;;;;;4.37;3.00;;;15.40;99.90;;;;;;4991587;28;21014;-73
2023/05/17 10:43:43;;;;;;;8.13;3.20;;;15.40;99.90;;;;;;4991530;28;20473;-73
2023/05/17 10:46:15;;;;;;;4.00;2.47;;;15.10;99.90;;;;;;4983403;28;20967;-73
2023/05/17 10:48:46;;;;;;;6.40;3.47;;;14.90;99.90;;;;;;4998863;28;20934;-74
2023/05/17 10:51:12;;;;;;;4.70;3.10;;;15.40;99.90;;;;;;4983583;28;20446;-73
2023/05/17 10:54:12;;;;;;;3.40;3.00;;;15.60;99.90;;;;;;4991654;28;20485;-73
2023/05/17 10:56:46;;;;;;;6.57;3.57;;;15.80;99.90;;;;;;4987281;28;20213;-73
2023/05/17 10:59:25;;;;;;;5.63;4.37;;;16.00;99.90;;;;;;4991192;28;20438;-73
2023/05/17 11:01:58;;;;;;;4.03;2.97;;;15.70;99.90;;;;;;4991533;28;20446;-73
2023/05/17 11:04:49;;;;;;;5.63;2.70;;;15.90;99.90;;;;;;4991298;28;20482;-74
2023/05/17 11:07:22;;;;;;;3.83;2.07;;;15.50;99.90;;;;;;4991253;28;20442;-72
2023/05/17 11:10:05;;;;;;;4.67;2.80;;;15.20;99.90;;;;;;4991492;28;20449;-72
2023/05/17 11:12:40;;;;;;;4.97;3.03;;;15.40;99.90;;;;;;4991443;28;20437;-73
2023/05/17 11:15:11;;;;;;;7.87;3.10;;;15.60;99.90;;;;;;4991152;28;20477;-74
2023/05/17 11:17:42;;;;;;;6.30;3.33;;;15.60;99.90;;;;;;4991180;28;20414;-73
2023/05/17 11:20:14;;;;;;;3.53;3.23;;;15.40;99.90;;;;;;4991158;28;20414;-74
2023/05/17 11:23:00;;;;;;;5.17;3.03;;;15.50;99.90;;;;;;4991140;28;20438;-73
2023/05/17 11:25:31;;;;;;;6.20;2.57;;;15.50;99.90;;;;;;4991267;28;20422;-73
2023/05/17 11:27:58;;;;;;;4.90;2.83;;;15.60;99.90;;;;;;4973566;28;20425;-73
2023/05/17 11:30:25;;;;;;;4.83;3.50;;;15.40;99.90;;;;;;4991117;28;20461;-73
2023/05/17 11:33:04;;;;;;;6.77;3.00;;;15.30;99.90;;;;;;4990962;28;20883;-71
2023/05/17 11:35:37;;;;;;;5.97;2.93;;;15.00;99.90;;;;;;4991663;28;20949;-73
2023/05/17 11:38:25;;;;;;;5.77;3.27;;;14.80;99.90;;;;;;4990572;28;20828;-73
2023/05/17 11:40:56;;;;;;;6.63;3.00;;;14.90;99.90;;;;;;4991129;28;20439;-72
2023/05/17 11:43:24;;;;;;;4.00;2.50;;;15.00;99.90;;;;;;4990777;28;20470;-73
2023/05/17 11:45:56;;;;;;;5.20;3.80;;;15.00;99.90;;;;;;4990885;28;20467;-73
2023/05/17 11:48:22;;;;;;;3.00;2.23;;;15.10;99.90;;;;;;4994160;28;20469;-73
2023/05/17 11:50:50;;;;;;;7.30;3.03;;;14.90;99.90;;;;;;4994462;28;20446;-74
2023/05/17 11:53:19;;;;;;;3.40;2.60;;;14.90;99.90;;;;;;4994521;28;20501;-73
2023/05/17 11:55:47;;;;;;;4.37;2.90;;;14.90;99.90;;;;;;4994779;28;20438;-75
2023/05/17 11:58:15;;;;;;;3.03;2.70;;;14.70;99.90;;;;;;4985927;28;20422;-74
2023/05/17 12:00:42;;;;;;;4.17;3.00;;;14.70;99.90;;;;;;4995000;28;20553;-76
2023/05/17 12:03:24;;;;;;;3.57;2.67;;;14.70;99.90;;;;;;4994385;28;20497;-74
2023/05/17 12:06:00;;;;;;;5.40;2.90;;;15.00;99.90;;;;;;4995159;28;20430;-75
2023/05/17 12:08:26;;;;;;;8.43;2.60;;;15.10;99.90;;;;;;4994402;28;20803;-74
2023/05/17 12:10:52;;;;;;;5.50;2.93;;;15.10;99.90;;;;;;4994642;28;20446;-75
2023/05/17 12:13:19;;;;;;;4.40;3.67;;;15.20;99.90;;;;;;4994483;28;20192;-75
2023/05/17 12:15:56;;;;;;;6.43;2.83;;;15.40;99.90;;;;;;4994730;28;20187;-76
2023/05/17 12:18:21;;;;;;;5.20;2.80;;;15.40;99.90;;;;;;4994317;28;20429;-76
2023/05/17 12:20:56;;;;;;;4.10;3.20;;;15.40;99.90;;;;;;5002160;28;20786;-75
2023/05/17 12:23:28;;;;;;;7.33;2.80;;;15.40;99.90;;;;;;4986550;28;20265;-76
2023/05/17 12:26:04;;;;;;;6.20;2.97;;;15.50;99.90;;;;;;4994363;28;20505;-74
2023/05/17 12:28:29;;;;;;;7.67;3.30;;;15.60;99.90;;;;;;4998786;28;20440;-76
2023/05/17 12:31:01;;;;;;;5.30;3.10;;;15.40;99.90;;;;;;4994097;28;20454;-75
2023/05/17 12:33:29;;;;;;;5.00;3.00;;;15.40;99.90;;;;;;4994293;28;20179;-76
2023/05/17 12:35:55;;;;;;;2.77;2.50;;;15.50;99.90;;;;;;4994343;28;20949;-75
2023/05/17 12:38:20;;;;;;;8.23;2.50;;;15.50;99.90;;;;;;4986789;28;20486;-74
2023/05/17 12:40:46;;;;;;;3.43;2.03;;;15.50;99.90;;;;;;4994559;28;20285;-76
2023/05/17 12:43:12;;;;;;;6.63;3.33;;;15.40;99.90;;;;;;5004813;28;20229;-76
2023/05/17 12:45:40;;;;;;;5.47;3.00;;;15.50;99.90;;;;;;4994498;28;20275;-75
2023/05/17 12:48:06;;;;;;;7.07;3.23;;;15.50;99.90;;;;;;4993264;28;20678;-76
2023/05/17 12:50:32;;;;;;;3.77;2.27;;;15.50;99.90;;;;;;4985549;28;20430;-76
2023/05/17 12:52:57;;;;;;;3.60;2.57;;;15.70;99.90;;;;;;4993770;28;20179;-75
2023/05/17 12:55:23;;;;;;;3.93;2.73;;;16.00;99.90;;;;;;4985764;28;20593;-75
2023/05/17 12:58:09;;;;;;;6.37;3.17;;;16.00;99.90;;;;;;4985240;28;20176;-75
2023/05/17 13:00:34;;;;;;;7.50;3.77;;;16.00;99.90;;;;;;4986621;28;20426;-76
2023/05/17 13:03:00;;;;;;;6.63;2.90;;;16.20;99.90;;;;;;4985529;28;20410;-76
2023/05/17 13:05:26;;;;;;;6.57;3.40;;;16.10;99.90;;;;;;4993705;28;20241;-75
2023/05/17 13:07:52;;;;;;;6.87;3.10;;;15.80;99.90;;;;;;4993513;28;20813;-76
2023/05/17 13:10:24;;;;;;;3.23;2.93;;;15.90;99.90;;;;;;4985500;28;20726;-75
2023/05/17 13:12:57;;;;;;;3.30;2.97;;;15.80;99.90;;;;;;4993779;28;20187;-74
2023/05/17 13:15:30;;;;;;;6.90;3.20;;;15.90;99.90;;;;;;4981446;28;20999;-76
2023/05/17 13:17:56;;;;;;;5.03;2.67;;;15.90;99.90;;;;;;4990008;28;20478;-76
2023/05/17 13:20:22;;;;;;;5.50;2.90;;;16.20;99.90;;;;;;4977506;28;20414;-74
2023/05/17 13:22:48;;;;;;;7.03;3.37;;;16.20;99.90;;;;;;4985306;28;20406;-75
2023/05/17 13:25:14;;;;;;;8.27;2.90;;;16.30;99.90;;;;;;4974600;28;20180;-76
2023/05/17 13:27:44;;;;;;;8.90;2.97;;;16.20;99.90;;;;;;4988371;28;20931;-75
2023/05/17 13:30:10;;;;;;;5.30;3.10;;;16.10;99.90;;;;;;4993331;28;20415;-75
2023/05/17 13:32:36;;;;;;;5.03;3.10;;;16.20;99.90;;;;;;4992886;28;20485;-73
2023/05/17 13:35:01;;;;;;;2.70;2.47;;;16.30;99.90;;;;;;4992804;28;20917;-74
2023/05/17 13:37:27;;;;;;;3.57;2.30;;;16.50;99.90;;;;;;4975414;28;20187;-75
2023/05/17 13:39:54;;;;;;;4.70;3.30;;;16.60;99.90;;;;;;4993067;28;20234;-75
2023/05/17 13:42:21;;;;;;;4.90;2.97;;;16.30;99.90;;;;;;4992663;28;20203;-75
2023/05/17 13:44:46;;;;;;;7.03;3.00;;;16.10;99.90;;;;;;4992779;28;20466;-75
2023/05/17 13:47:12;;;;;;;7.60;5.40;;;15.80;99.90;;;;;;4992630;28;20565;-74
2023/05/17 13:49:37;;;;;;;5.50;2.87;;;15.80;99.90;;;;;;4981736;28;20593;-73
2023/05/17 13:52:07;;;;;;;4.77;3.00;;;15.90;99.90;;;;;;4987444;28;20199;-74
2023/05/17 13:54:32;;;;;;;2.97;2.43;;;15.80;99.90;;;;;;4989036;28;20241;-74
2023/05/17 13:57:01;;;;;;;5.27;2.80;;;15.90;99.90;;;;;;4991834;28;20414;-74
2023/05/17 13:59:27;;;;;;;7.80;3.10;;;15.80;99.90;;;;;;4992039;28;20195;-74
2023/05/17 14:01:52;;;;;;;4.63;3.60;;;15.70;99.90;;;;;;4983901;28;21092;-69
2023/05/17 14:04:26;;;;;;;4.70;3.00;;;15.80;99.90;;;;;;4986654;28;20458;-73
2023/05/17 14:06:52;;;;;;;5.20;2.80;;;16.00;99.90;;;;;;4985679;28;20321;-73
2023/05/17 14:09:19;;;;;;;5.33;2.90;;;16.10;99.90;;;;;;4990057;28;20423;-71
2023/05/17 14:11:44;;;;;;;6.33;3.03;;;16.10;99.90;;;;;;4987318;28;20195;-73
2023/05/17 14:14:10;;;;;;;5.90;2.60;;;16.10;99.90;;;;;;4990505;28;20979;-73
2023/05/17 14:16:36;;;;;;;3.90;3.30;;;15.90;99.90;;;;;;4989941;28;20587;-72
2023/05/17 14:19:01;;;;;;;3.80;2.70;;;15.80;99.90;;;;;;4980293;28;20180;-71
2023/05/17 14:21:27;;;;;;;4.10;3.20;;;15.80;99.90;;;;;;4991706;28;20457;-72